sensor_id;sensor_type;location;lat;lon;timestamp;pressure;altitude;pressure_sealevel;temperature;humidity
68199;BME280;55021;51.554;17.044;2023-03-04T00:05:58;100716.31;;;1.72;81.32
68199;BME280;55021;51.554;17.044;2023-03-04T00:21:00;100615.03;;;1.12;81.65
68199;BME280;55021;51.554;17.044;2023-03-04T00:36:03;100726.19;;;1.70;82.17
68199;BME280;55021;51.554;17.044;2023-03-04T00:51:06;100708.75;;;1.64;81.57
68199;BME280;55021;51.554;17.044;2023-03-04T01:06:09;100658.34;;;1.45;81.67
68199;BME280;55021;51.554;17.044;2023-03-04T01:21:11;100671.75;;;1.88;81.07
68199;BME280;55021;51.554;17.044;2023-03-04T01:36:13;100625.75;;;1.40;80.96
68199;BME280;55021;51.554;17.044;2023-03-04T01:51:17;100665.13;;;1.65;80.15
68199;BME280;55021;51.554;17.044;2023-03-04T02:06:21;100650.38;;;1.74;79.98
68199;BME280;55021;51.554;17.044;2023-03-04T02:21:26;100637.72;;;1.63;79.46
68199;BME280;55021;51.554;17.044;2023-03-04T02:36:31;100611.50;;;1.70;79.25
68199;BME280;55021;51.554;17.044;2023-03-04T02:51:33;100581.50;;;1.80;78.08
68199;BME280;55021;51.554;17.044;2023-03-04T03:06:36;100560.84;;;1.84;77.88
68199;BME280;55021;51.554;17.044;2023-03-04T03:21:39;100549.22;;;1.85;77.49
68199;BME280;55021;51.554;17.044;2023-03-04T03:36:44;100493.53;;;1.66;76.77
68199;BME280;55021;51.554;17.044;2023-03-04T03:51:47;100394.41;;;1.19;76.56
68199;BME280;55021;51.554;17.044;2023-03-04T04:06:52;100418.34;;;1.47;76.40
68199;BME280;55021;51.554;17.044;2023-03-04T04:22:02;100477.00;;;2.02;75.48
68199;BME280;55021;51.554;17.044;2023-03-04T04:37:06;100500.19;;;2.14;75.91
68199;BME280;55021;51.554;17.044;2023-03-04T04:52:09;100487.25;;;2.08;75.81
68199;BME280;55021;51.554;17.044;2023-03-04T05:07:12;100462.84;;;2.14;75.83
68199;BME280;55021;51.554;17.044;2023-03-04T05:22:14;100460.38;;;2.11;75.52
68199;BME280;55021;51.554;17.044;2023-03-04T05:37:16;100440.59;;;2.01;76.06
68199;BME280;55021;51.554;17.044;2023-03-04T05:52:19;100486.59;;;2.31;76.08
68199;BME280;55021;51.554;17.044;2023-03-04T06:07:22;100441.94;;;2.21;75.32
68199;BME280;55021;51.554;17.044;2023-03-04T06:22:24;100467.59;;;2.36;75.93
68199;BME280;55021;51.554;17.044;2023-03-04T06:37:27;100501.72;;;2.45;76.38
68199;BME280;55021;51.554;17.044;2023-03-04T06:52:29;100429.88;;;2.15;77.30
68199;BME280;55021;51.554;17.044;2023-03-04T07:07:32;100485.72;;;2.57;78.43
68199;BME280;55021;51.554;17.044;2023-03-04T07:22:34;100474.09;;;2.58;79.88
68199;BME280;55021;51.554;17.044;2023-03-04T07:37:40;100451.88;;;2.70;80.48
68199;BME280;55021;51.554;17.044;2023-03-04T07:52:46;100438.00;;;2.78;79.91
68199;BME280;55021;51.554;17.044;2023-03-04T08:07:48;100459.06;;;2.95;80.28
68199;BME280;55021;51.554;17.044;2023-03-04T08:22:54;100436.19;;;3.04;79.29
68199;BME280;55021;51.554;17.044;2023-03-04T08:37:57;100451.78;;;3.22;79.55
68199;BME280;55021;51.554;17.044;2023-03-04T08:52:59;100440.38;;;3.69;78.12
68199;BME280;55021;51.554;17.044;2023-03-04T09:08:01;100429.38;;;3.98;77.61
68199;BME280;55021;51.554;17.044;2023-03-04T09:23:04;100417.81;;;3.97;78.76
68199;BME280;55021;51.554;17.044;2023-03-04T09:38:07;100413.97;;;4.36;80.11
68199;BME280;55021;51.554;17.044;2023-03-04T09:53:24;100401.44;;;4.71;80.09
68199;BME280;55021;51.554;17.044;2023-03-04T10:08:48;100354.19;;;4.92;76.80
68199;BME280;55021;51.554;17.044;2023-03-04T10:23:51;100379.56;;;4.99;77.17
68199;BME280;55021;51.554;17.044;2023-03-04T10:38:59;100374.41;;;4.85;77.34
68199;BME280;55021;51.554;17.044;2023-03-04T10:54:22;100301.75;;;4.33;79.14
68199;BME280;55021;51.554;17.044;2023-03-04T11:09:26;100357.88;;;5.02;77.31
68199;BME280;55021;51.554;17.044;2023-03-04T11:24:32;100287.50;;;5.32;75.55
68199;BME280;55021;51.554;17.044;2023-03-04T11:39:38;100293.66;;;5.55;74.21
68199;BME280;55021;51.554;17.044;2023-03-04T11:55:07;100328.25;;;6.12;73.41
68199;BME280;55021;51.554;17.044;2023-03-04T12:10:21;100329.19;;;6.22;72.49
68199;BME280;55021;51.554;17.044;2023-03-04T12:25:40;100326.06;;;6.38;70.37
68199;BME280;55021;51.554;17.044;2023-03-04T12:40:50;100308.63;;;6.00;72.50
68199;BME280;55021;51.554;17.044;2023-03-04T12:55:57;100319.16;;;6.24;69.37
68199;BME280;55021;51.554;17.044;2023-03-04T13:26:40;100258.16;;;6.36;67.21
68199;BME280;55021;51.554;17.044;2023-03-04T13:41:47;100257.91;;;6.18;70.37
68199;BME280;55021;51.554;17.044;2023-03-04T13:57:10;100256.41;;;6.25;72.76
68199;BME280;55021;51.554;17.044;2023-03-04T14:12:16;100275.38;;;6.54;71.45
68199;BME280;55021;51.554;17.044;2023-03-04T14:27:20;100246.38;;;6.27;69.43
68199;BME280;55021;51.554;17.044;2023-03-04T14:42:29;100225.59;;;6.08;67.27
68199;BME280;55021;51.554;17.044;2023-03-04T14:57:34;100256.00;;;6.30;67.47
68199;BME280;55021;51.554;17.044;2023-03-04T15:12:37;100195.84;;;6.00;66.74
68199;BME280;55021;51.554;17.044;2023-03-04T15:27:43;100255.72;;;6.12;69.03
68199;BME280;55021;51.554;17.044;2023-03-04T15:42:45;100176.78;;;5.30;70.23
68199;BME280;55021;51.554;17.044;2023-03-04T16:13:48;100284.16;;;5.51;73.26
68199;BME280;55021;51.554;17.044;2023-03-04T16:28:51;100290.53;;;5.39;73.61
68199;BME280;55021;51.554;17.044;2023-03-04T16:43:54;100304.94;;;5.81;71.50
68199;BME280;55021;51.554;17.044;2023-03-04T16:58:57;100290.81;;;5.14;69.59
68199;BME280;55021;51.554;17.044;2023-03-04T17:14:00;100368.34;;;4.94;72.09
68199;BME280;55021;51.554;17.044;2023-03-04T17:29:03;100387.66;;;4.76;74.96
68199;BME280;55021;51.554;17.044;2023-03-04T17:44:08;100347.22;;;4.22;75.05
68199;BME280;55021;51.554;17.044;2023-03-04T17:59:13;100374.81;;;4.11;76.48
68199;BME280;55021;51.554;17.044;2023-03-04T18:14:16;100392.88;;;3.97;76.91
68199;BME280;55021;51.554;17.044;2023-03-04T18:29:19;100402.19;;;3.91;74.54
68199;BME280;55021;51.554;17.044;2023-03-04T18:44:21;100422.59;;;4.05;69.84
68199;BME280;55021;51.554;17.044;2023-03-04T18:59:26;100427.72;;;4.08;68.78
68199;BME280;55021;51.554;17.044;2023-03-04T19:14:31;100449.69;;;3.76;67.83
68199;BME280;55021;51.554;17.044;2023-03-04T19:29:34;100419.22;;;2.92;68.26
68199;BME280;55021;51.554;17.044;2023-03-04T19:44:37;100450.38;;;3.55;64.80
68199;BME280;55021;51.554;17.044;2023-03-04T19:59:39;100473.19;;;3.35;65.69
68199;BME280;55021;51.554;17.044;2023-03-04T20:14:42;100444.63;;;2.98;66.95
68199;BME280;55021;51.554;17.044;2023-03-04T20:29:44;100483.34;;;3.05;66.02
68199;BME280;55021;51.554;17.044;2023-03-04T20:44:47;100479.34;;;3.61;65.09
68199;BME280;55021;51.554;17.044;2023-03-04T20:59:49;100489.97;;;3.24;65.67
68199;BME280;55021;51.554;17.044;2023-03-04T21:14:54;100442.03;;;2.58;65.72
68199;BME280;55021;51.554;17.044;2023-03-04T21:29:57;100464.22;;;2.46;64.90
68199;BME280;55021;51.554;17.044;2023-03-04T21:45:00;100469.81;;;2.56;66.85
68199;BME280;55021;51.554;17.044;2023-03-04T22:00:03;100495.31;;;2.60;69.99
68199;BME280;55021;51.554;17.044;2023-03-04T22:15:07;100472.34;;;2.45;69.62
68199;BME280;55021;51.554;17.044;2023-03-04T22:30:10;100470.06;;;2.91;67.39
68199;BME280;55021;51.554;17.044;2023-03-04T22:45:16;100472.22;;;3.11;65.06
68199;BME280;55021;51.554;17.044;2023-03-04T23:00:21;100423.91;;;3.14;62.40
68199;BME280;55021;51.554;17.044;2023-03-04T23:15:24;100391.22;;;2.73;64.03
68199;BME280;55021;51.554;17.044;2023-03-04T23:30:27;100413.72;;;2.68;64.08
68199;BME280;55021;51.554;17.044;2023-03-04T23:45:30;100431.91;;;2.76;64.16
